Time;durP1;ratioP1;P1;durP2;ratioP2;P2;SDS_P1;SDS_P2;PMS_P1;PMS_P2;Temp;Humidity;BMP_temperature;BMP_pressure;BME280_temperature;BME280_humidity;BME280_pressure;Samples;Min_cycle;Max_cycle;Signal;HPM_P1;HPM_P2
2021/07/31 00:02:10;;;;;;;4.00;2.90;;;;;;;;;;4979807;28;20037;-62
2021/07/31 00:04:35;;;;;;;9.38;3.10;;;;;;;;;;4979857;28;20065;-66
2021/07/31 00:07:02;;;;;;;13.70;2.47;;;;;;;;;;4976657;28;20046;-64
2021/07/31 00:09:27;;;;;;;11.13;3.03;;;;;;;;;;4995031;28;20451;-58
2021/07/31 00:11:55;;;;;;;11.57;3.30;;;;;;;;;;4992236;28;20869;-61
2021/07/31 00:14:26;;;;;;;11.57;2.88;;;;;;;;;;4977454;28;20038;-62
2021/07/31 00:16:54;;;;;;;8.52;3.13;;;;;;;;;;4983956;28;20029;-62
2021/07/31 00:19:19;;;;;;;4.88;2.75;;;;;;;;;;4967256;28;20095;-61
2021/07/31 00:21:47;;;;;;;10.82;3.38;;;;;;;;;;4978042;28;20914;-63
2021/07/31 00:24:12;;;;;;;11.95;3.15;;;;;;;;;;4980767;28;20041;-62
2021/07/31 00:26:38;;;;;;;10.38;3.58;;;;;;;;;;4993189;28;20033;-62
2021/07/31 00:29:04;;;;;;;7.88;3.17;;;;;;;;;;4979129;28;20029;-63
2021/07/31 00:31:32;;;;;;;13.60;4.00;;;;;;;;;;4982529;28;20025;-61
2021/07/31 00:33:58;;;;;;;12.32;3.97;;;;;;;;;;4994535;28;20041;-62
2021/07/31 00:36:24;;;;;;;10.80;3.63;;;;;;;;;;4978401;28;20033;-62
2021/07/31 00:38:50;;;;;;;12.25;3.67;;;;;;;;;;4977623;28;20117;-63
2021/07/31 00:41:18;;;;;;;10.45;3.95;;;;;;;;;;4979069;28;20706;-63
2021/07/31 00:43:43;;;;;;;11.68;3.92;;;;;;;;;;4980028;28;20037;-63
2021/07/31 00:46:10;;;;;;;6.72;4.13;;;;;;;;;;4980412;28;20025;-62
2021/07/31 00:48:41;;;;;;;9.93;4.07;;;;;;;;;;4984939;28;20058;-62
2021/07/31 00:51:06;;;;;;;19.02;4.38;;;;;;;;;;4976453;28;20022;-63
2021/07/31 00:53:33;;;;;;;14.77;4.88;;;;;;;;;;4979629;28;20572;-61
2021/07/31 00:55:59;;;;;;;13.77;4.40;;;;;;;;;;4980515;28;20030;-61
2021/07/31 00:58:25;;;;;;;13.05;4.25;;;;;;;;;;4978734;28;20033;-64
2021/07/31 01:00:51;;;;;;;14.60;4.43;;;;;;;;;;4978563;28;20062;-63
2021/07/31 01:03:16;;;;;;;11.73;4.55;;;;;;;;;;4984163;28;20172;-63
2021/07/31 01:05:42;;;;;;;15.68;3.90;;;;;;;;;;4959004;28;20941;-66
2021/07/31 01:08:07;;;;;;;11.15;4.38;;;;;;;;;;4991902;28;20030;-64
2021/07/31 01:10:35;;;;;;;12.45;4.28;;;;;;;;;;4977594;28;20087;-63
2021/07/31 01:13:01;;;;;;;11.43;4.50;;;;;;;;;;4995458;28;22242;-63
2021/07/31 01:15:27;;;;;;;11.30;4.45;;;;;;;;;;4976028;28;20040;-61
2021/07/31 01:17:55;;;;;;;14.52;4.97;;;;;;;;;;4991600;28;20046;-61
2021/07/31 01:20:23;;;;;;;9.25;5.15;;;;;;;;;;4984579;28;20535;-62
2021/07/31 01:22:49;;;;;;;11.38;4.85;;;;;;;;;;4991165;28;20030;-61
2021/07/31 01:25:20;;;;;;;19.77;5.45;;;;;;;;;;4959949;28;20087;-62
2021/07/31 01:27:45;;;;;;;11.02;5.07;;;;;;;;;;4978076;28;20092;-64
2021/07/31 01:30:12;;;;;;;9.27;5.30;;;;;;;;;;4985640;28;20037;-64
2021/07/31 01:32:38;;;;;;;13.02;5.32;;;;;;;;;;4977636;28;20067;-65
2021/07/31 01:35:04;;;;;;;22.60;5.50;;;;;;;;;;4978516;28;20042;-68
2021/07/31 01:37:30;;;;;;;11.23;5.40;;;;;;;;;;4982612;28;20105;-61
2021/07/31 01:39:57;;;;;;;23.98;6.28;;;;;;;;;;4977468;28;20053;-63
2021/07/31 01:42:25;;;;;;;13.15;5.53;;;;;;;;;;4977400;28;21696;-64
2021/07/31 01:44:53;;;;;;;20.73;5.85;;;;;;;;;;4977757;28;20036;-63
2021/07/31 01:47:23;;;;;;;15.90;6.03;;;;;;;;;;4958959;28;20029;-60
2021/07/31 01:49:49;;;;;;;15.45;6.57;;;;;;;;;;4992333;28;20840;-61
2021/07/31 01:52:16;;;;;;;14.15;6.55;;;;;;;;;;4984642;28;20042;-60
2021/07/31 01:54:41;;;;;;;13.20;5.72;;;;;;;;;;4977116;28;20104;-63
2021/07/31 01:57:07;;;;;;;12.75;6.05;;;;;;;;;;4993013;28;20038;-64
2021/07/31 01:59:33;;;;;;;12.85;6.55;;;;;;;;;;4975640;28;20100;-64
2021/07/31 02:01:58;;;;;;;19.88;6.25;;;;;;;;;;4977550;28;20062;-63
2021/07/31 02:04:24;;;;;;;18.25;6.70;;;;;;;;;;4979449;28;20108;-63
2021/07/31 02:06:49;;;;;;;20.83;7.07;;;;;;;;;;4992213;28;20037;-64
2021/07/31 02:09:17;;;;;;;18.45;7.15;;;;;;;;;;4950385;28;20057;-63
2021/07/31 02:11:45;;;;;;;19.92;6.93;;;;;;;;;;4978196;28;20029;-62
2021/07/31 02:14:13;;;;;;;23.20;7.68;;;;;;;;;;4992031;28;20042;-62
2021/07/31 02:16:38;;;;;;;20.48;6.47;;;;;;;;;;4994639;28;20018;-61
2021/07/31 02:19:05;;;;;;;17.42;6.78;;;;;;;;;;4982297;28;20047;-62
2021/07/31 02:21:32;;;;;;;17.10;7.28;;;;;;;;;;4995060;28;20037;-63
2021/07/31 02:24:01;;;;;;;20.75;8.35;;;;;;;;;;4980029;28;20042;-63
2021/07/31 02:26:29;;;;;;;20.02;7.20;;;;;;;;;;4995090;28;20045;-62
2021/07/31 02:28:57;;;;;;;22.83;7.28;;;;;;;;;;4981827;28;20042;-66
2021/07/31 02:31:25;;;;;;;12.13;6.63;;;;;;;;;;4981188;28;20557;-63
2021/07/31 02:33:57;;;;;;;22.95;7.93;;;;;;;;;;4984576;28;20033;-62
2021/07/31 02:36:25;;;;;;;21.67;7.38;;;;;;;;;;4981709;28;20061;-63
2021/07/31 02:38:51;;;;;;;17.58;7.35;;;;;;;;;;4983631;28;20133;-63
2021/07/31 02:41:19;;;;;;;21.98;8.00;;;;;;;;;;4980575;28;20112;-63
2021/07/31 02:43:47;;;;;;;19.38;7.72;;;;;;;;;;4982229;28;20417;-63
2021/07/31 02:46:12;;;;;;;24.48;8.25;;;;;;;;;;4982600;28;20058;-62
2021/07/31 02:48:38;;;;;;;24.75;8.38;;;;;;;;;;4981790;28;20099;-63
2021/07/31 02:51:13;;;;;;;16.95;7.47;;;;;;;;;;4994732;28;20025;-62
2021/07/31 02:53:39;;;;;;;21.17;8.10;;;;;;;;;;4981772;28;20042;-60
2021/07/31 02:56:09;;;;;;;19.98;9.15;;;;;;;;;;4979865;28;20537;-62
2021/07/31 02:58:37;;;;;;;24.75;9.25;;;;;;;;;;4997410;28;20042;-63
2021/07/31 03:01:08;;;;;;;21.30;8.13;;;;;;;;;;4996648;28;20049;-63
2021/07/31 03:03:36;;;;;;;22.40;8.35;;;;;;;;;;4998608;28;20042;-65
2021/07/31 03:06:02;;;;;;;21.23;8.35;;;;;;;;;;4978752;28;20036;-63
2021/07/31 03:08:30;;;;;;;18.70;8.75;;;;;;;;;;4977666;28;20772;-64
2021/07/31 03:11:00;;;;;;;18.90;8.48;;;;;;;;;;4983282;28;20038;-65
2021/07/31 03:13:26;;;;;;;18.08;9.05;;;;;;;;;;4981515;28;20063;-62
2021/07/31 03:15:51;;;;;;;20.00;9.18;;;;;;;;;;4978736;28;21099;-60
2021/07/31 03:18:20;;;;;;;21.52;9.02;;;;;;;;;;4985963;28;20033;-60
2021/07/31 03:20:46;;;;;;;18.38;8.95;;;;;;;;;;4978580;28;20697;-61
2021/07/31 03:23:14;;;;;;;18.10;9.20;;;;;;;;;;4997332;28;20503;-59
2021/07/31 03:25:39;;;;;;;18.42;8.75;;;;;;;;;;4981414;28;20040;-59
2021/07/31 03:28:08;;;;;;;27.00;9.98;;;;;;;;;;4994245;28;20604;-61
2021/07/31 03:30:36;;;;;;;21.85;9.70;;;;;;;;;;4981465;28;20088;-60
2021/07/31 03:33:04;;;;;;;27.48;9.73;;;;;;;;;;4982604;28;20030;-59
2021/07/31 03:35:32;;;;;;;15.32;8.77;;;;;;;;;;4986511;28;20037;-59
2021/07/31 03:38:00;;;;;;;19.73;8.60;;;;;;;;;;4993777;28;20037;-58
2021/07/31 03:40:26;;;;;;;21.58;9.77;;;;;;;;;;4994011;28;20030;-58
2021/07/31 03:42:53;;;;;;;21.02;8.85;;;;;;;;;;4982924;28;20037;-59
2021/07/31 03:45:18;;;;;;;17.08;8.05;;;;;;;;;;4980574;28;20049;-59
2021/07/31 03:47:44;;;;;;;18.90;8.82;;;;;;;;;;4980435;28;20040;-59
2021/07/31 03:50:10;;;;;;;37.00;8.30;;;;;;;;;;4979271;28;20473;-60
2021/07/31 03:52:36;;;;;;;19.38;7.93;;;;;;;;;;4992969;28;20081;-59
2021/07/31 03:55:03;;;;;;;20.17;8.38;;;;;;;;;;4980827;28;20092;-58
2021/07/31 03:57:28;;;;;;;14.95;7.65;;;;;;;;;;4979349;28;20045;-59
2021/07/31 03:59:58;;;;;;;20.75;7.18;;;;;;;;;;4981130;28;20046;-59
2021/07/31 04:02:24;;;;;;;28.70;8.25;;;;;;;;;;4982087;28;20144;-58
2021/07/31 04:04:50;;;;;;;23.00;8.55;;;;;;;;;;4980904;28;20048;-59
2021/07/31 04:07:20;;;;;;;22.27;8.00;;;;;;;;;;4983838;28;20038;-58
2021/07/31 04:09:45;;;;;;;18.38;7.68;;;;;;;;;;4980597;28;20054;-58
2021/07/31 04:12:11;;;;;;;23.23;7.43;;;;;;;;;;4980309;28;20035;-59
2021/07/31 04:14:39;;;;;;;27.35;7.30;;;;;;;;;;4994314;28;20033;-59
2021/07/31 04:17:07;;;;;;;18.05;6.35;;;;;;;;;;4969148;28;20034;-59
2021/07/31 04:19:35;;;;;;;15.20;6.97;;;;;;;;;;4995603;28;20134;-59
2021/07/31 04:22:01;;;;;;;70.63;9.00;;;;;;;;;;4975812;28;20033;-58
2021/07/31 04:24:28;;;;;;;32.17;6.40;;;;;;;;;;4993155;28;20041;-59
2021/07/31 04:26:54;;;;;;;22.40;5.93;;;;;;;;;;4981128;28;20469;-59
2021/07/31 04:29:23;;;;;;;24.00;5.57;;;;;;;;;;4980662;28;20066;-60
2021/07/31 04:31:50;;;;;;;11.15;5.72;;;;;;;;;;4979990;28;20080;-58
2021/07/31 04:34:16;;;;;;;22.13;5.80;;;;;;;;;;4986061;28;20030;-58
2021/07/31 04:36:44;;;;;;;18.88;6.20;;;;;;;;;;4991647;28;20029;-57
2021/07/31 04:39:12;;;;;;;26.98;5.90;;;;;;;;;;4976994;28;20046;-58
2021/07/31 04:41:40;;;;;;;17.52;6.07;;;;;;;;;;4978541;28;20038;-59
2021/07/31 04:44:06;;;;;;;22.75;5.53;;;;;;;;;;4994677;28;20038;-58
2021/07/31 04:46:33;;;;;;;14.68;5.28;;;;;;;;;;4975813;28;20116;-60
2021/07/31 04:49:01;;;;;;;19.65;5.85;;;;;;;;;;4980613;28;20033;-59
2021/07/31 04:51:27;;;;;;;22.98;5.50;;;;;;;;;;4990797;28;20131;-60
2021/07/31 04:53:52;;;;;;;22.63;5.03;;;;;;;;;;4977628;28;20035;-58
2021/07/31 04:56:20;;;;;;;19.52;5.32;;;;;;;;;;4990189;28;20030;-58
2021/07/31 04:58:48;;;;;;;19.40;4.15;;;;;;;;;;4977522;28;20052;-58
2021/07/31 05:01:13;;;;;;;16.35;4.82;;;;;;;;;;4979034;28;20026;-58
2021/07/31 05:03:43;;;;;;;24.20;4.63;;;;;;;;;;4977575;28;20038;-57
2021/07/31 05:06:11;;;;;;;67.18;6.60;;;;;;;;;;4989147;28;20038;-56
2021/07/31 05:08:38;;;;;;;24.15;4.55;;;;;;;;;;4980127;28;20073;-58
2021/07/31 05:11:06;;;;;;;27.92;3.95;;;;;;;;;;4977925;28;20122;-58
2021/07/31 05:13:32;;;;;;;29.25;3.83;;;;;;;;;;4979464;28;20160;-58
2021/07/31 05:16:00;;;;;;;20.33;4.20;;;;;;;;;;4977632;28;20018;-59
2021/07/31 05:18:25;;;;;;;25.48;4.85;;;;;;;;;;4978647;28;20496;-58
2021/07/31 05:20:57;;;;;;;27.50;4.97;;;;;;;;;;4976434;28;20476;-59
2021/07/31 05:23:23;;;;;;;22.85;3.65;;;;;;;;;;4978940;28;20888;-58
2021/07/31 05:25:53;;;;;;;18.65;4.25;;;;;;;;;;4990472;28;20021;-58
2021/07/31 05:28:20;;;;;;;17.92;3.78;;;;;;;;;;4977839;28;20065;-58
2021/07/31 05:30:46;;;;;;;19.17;3.15;;;;;;;;;;4993073;28;20141;-59
2021/07/31 05:33:11;;;;;;;29.73;4.43;;;;;;;;;;4962036;28;20022;-59
2021/07/31 05:35:39;;;;;;;31.05;4.13;;;;;;;;;;4980851;28;20131;-59
2021/07/31 05:38:05;;;;;;;24.63;3.03;;;;;;;;;;4992894;28;20501;-60
2021/07/31 05:40:30;;;;;;;22.75;3.60;;;;;;;;;;4982541;28;20117;-60
2021/07/31 05:42:58;;;;;;;15.35;3.33;;;;;;;;;;4967716;28;20788;-60
2021/07/31 05:45:25;;;;;;;19.08;3.03;;;;;;;;;;4979865;28;20042;-60
2021/07/31 05:47:50;;;;;;;29.55;3.67;;;;;;;;;;4975511;28;20097;-59
2021/07/31 05:50:16;;;;;;;29.52;3.38;;;;;;;;;;4998908;28;20794;-59
2021/07/31 05:52:41;;;;;;;15.13;2.72;;;;;;;;;;4997625;28;20056;-60
2021/07/31 05:55:10;;;;;;;18.15;2.65;;;;;;;;;;4985797;28;20070;-61
2021/07/31 05:57:38;;;;;;;13.07;3.03;;;;;;;;;;4982149;28;20034;-60
2021/07/31 06:00:04;;;;;;;20.50;2.78;;;;;;;;;;4984704;28;20101;-62
2021/07/31 06:02:35;;;;;;;22.60;3.28;;;;;;;;;;4986108;28;20048;-61
2021/07/31 06:05:03;;;;;;;19.50;2.72;;;;;;;;;;5000956;28;20048;-62
2021/07/31 06:07:28;;;;;;;8.27;2.15;;;;;;;;;;4998055;28;20042;-62
2021/07/31 06:09:54;;;;;;;21.67;3.00;;;;;;;;;;4970736;28;20043;-61
2021/07/31 06:12:21;;;;;;;14.07;2.83;;;;;;;;;;4973022;28;20030;-60
2021/07/31 06:14:46;;;;;;;18.90;2.78;;;;;;;;;;4986402;28;20544;-61
2021/07/31 06:17:12;;;;;;;17.55;2.80;;;;;;;;;;4983244;28;20026;-60
2021/07/31 06:19:39;;;;;;;13.93;2.50;;;;;;;;;;4986233;28;20187;-61
2021/07/31 06:22:07;;;;;;;24.05;3.22;;;;;;;;;;4988405;28;21081;-65
2021/07/31 06:24:35;;;;;;;14.02;3.00;;;;;;;;;;4998996;28;20044;-62
2021/07/31 06:27:03;;;;;;;28.73;4.20;;;;;;;;;;4984825;28;20545;-61
2021/07/31 06:29:28;;;;;;;19.70;2.80;;;;;;;;;;4985532;28;20034;-61
2021/07/31 06:31:54;;;;;;;18.63;3.08;;;;;;;;;;4987693;28;20047;-61
2021/07/31 06:34:19;;;;;;;24.73;2.88;;;;;;;;;;4980385;28;20044;-59
2021/07/31 06:36:47;;;;;;;15.52;2.67;;;;;;;;;;4983832;28;20042;-58
2021/07/31 06:39:17;;;;;;;11.98;2.83;;;;;;;;;;5000390;28;20413;-60
2021/07/31 06:41:43;;;;;;;21.30;3.15;;;;;;;;;;4972592;28;20121;-58
2021/07/31 06:44:11;;;;;;;12.32;2.38;;;;;;;;;;4985654;28;20034;-60
2021/07/31 06:46:38;;;;;;;12.52;2.72;;;;;;;;;;4981125;28;20048;-59
2021/07/31 06:49:07;;;;;;;20.20;3.13;;;;;;;;;;4985389;28;20029;-60
2021/07/31 06:51:36;;;;;;;14.00;2.22;;;;;;;;;;4988606;28;20132;-60
2021/07/31 06:54:04;;;;;;;18.48;2.80;;;;;;;;;;4984619;28;20034;-59
2021/07/31 06:56:42;;;;;;;12.52;2.17;;;;;;;;;;4985857;28;20064;-59
2021/07/31 06:59:12;;;;;;;11.15;2.05;;;;;;;;;;4982996;28;20042;-58
2021/07/31 07:01:37;;;;;;;9.95;1.90;;;;;;;;;;4983294;28;20108;-58
2021/07/31 07:04:03;;;;;;;14.50;2.10;;;;;;;;;;4980832;28;21069;-59
2021/07/31 07:06:31;;;;;;;6.70;1.95;;;;;;;;;;4966818;28;20599;-59
2021/07/31 07:08:56;;;;;;;10.73;2.10;;;;;;;;;;4995931;28;21179;-60
2021/07/31 07:11:24;;;;;;;9.85;1.83;;;;;;;;;;4986436;28;20034;-60
2021/07/31 07:13:55;;;;;;;14.10;2.28;;;;;;;;;;4994550;28;20437;-60
2021/07/31 07:16:20;;;;;;;14.77;2.22;;;;;;;;;;4993280;28;20034;-60
2021/07/31 07:18:45;;;;;;;21.35;2.67;;;;;;;;;;4994193;28;20069;-60
2021/07/31 07:21:13;;;;;;;20.42;2.53;;;;;;;;;;4979901;28;20065;-61
2021/07/31 07:23:40;;;;;;;12.02;2.25;;;;;;;;;;4996214;28;20034;-61
2021/07/31 07:26:11;;;;;;;13.48;2.05;;;;;;;;;;4982303;28;20037;-59
2021/07/31 07:28:39;;;;;;;14.50;1.70;;;;;;;;;;4982155;28;20050;-60
2021/07/31 07:31:07;;;;;;;15.50;1.85;;;;;;;;;;4997278;28;20033;-61
2021/07/31 07:33:33;;;;;;;7.32;1.35;;;;;;;;;;4982240;28;20064;-63
2021/07/31 07:36:01;;;;;;;6.45;1.88;;;;;;;;;;4983728;28;20914;-60
2021/07/31 07:38:26;;;;;;;9.30;1.63;;;;;;;;;;4980224;28;20042;-60
2021/07/31 07:40:54;;;;;;;10.77;1.90;;;;;;;;;;4994331;28;20036;-60
2021/07/31 07:43:22;;;;;;;7.82;1.63;;;;;;;;;;4981850;28;20076;-60
2021/07/31 07:45:48;;;;;;;10.68;1.80;;;;;;;;;;4982704;28;20037;-60
2021/07/31 07:48:16;;;;;;;7.50;1.77;;;;;;;;;;4981896;28;20183;-59
2021/07/31 07:50:44;;;;;;;14.02;1.80;;;;;;;;;;4977157;28;20032;-60
2021/07/31 07:53:12;;;;;;;9.52;1.55;;;;;;;;;;4982189;28;20050;-59
2021/07/31 07:55:40;;;;;;;14.52;2.47;;;;;;;;;;4994001;28;20041;-60
2021/07/31 07:58:10;;;;;;;10.30;2.20;;;;;;;;;;4977635;28;20042;-58
2021/07/31 08:00:36;;;;;;;14.73;1.83;;;;;;;;;;4989452;28;20069;-58
2021/07/31 08:03:08;;;;;;;11.88;1.30;;;;;;;;;;4981188;28;20079;-59
2021/07/31 08:05:35;;;;;;;10.93;1.90;;;;;;;;;;4991612;28;20053;-59
2021/07/31 08:08:04;;;;;;;14.10;2.25;;;;;;;;;;4980838;28;20034;-59
2021/07/31 08:10:33;;;;;;;8.40;1.20;;;;;;;;;;4981156;28;20049;-59
2021/07/31 08:12:58;;;;;;;2.80;1.23;;;;;;;;;;4994904;28;20038;-59
2021/07/31 08:15:24;;;;;;;5.43;1.10;;;;;;;;;;4979511;28;20721;-58
2021/07/31 08:17:50;;;;;;;6.60;1.58;;;;;;;;;;4980979;28;20029;-59
2021/07/31 08:20:21;;;;;;;7.25;1.20;;;;;;;;;;4981778;28;20030;-59
2021/07/31 08:22:49;;;;;;;4.82;1.70;;;;;;;;;;4979251;28;20066;-59
2021/07/31 08:25:16;;;;;;;4.40;0.80;;;;;;;;;;4968905;28;20034;-60
2021/07/31 08:27:42;;;;;;;8.88;1.00;;;;;;;;;;4980162;28;22029;-59
2021/07/31 08:30:15;;;;;;;4.32;0.80;;;;;;;;;;4993883;28;20133;-60
2021/07/31 08:32:44;;;;;;;1.73;0.70;;;;;;;;;;4993262;28;20398;-61
2021/07/31 08:35:17;;;;;;;7.00;0.98;;;;;;;;;;4995192;28;20029;-61
2021/07/31 08:37:45;;;;;;;3.88;0.82;;;;;;;;;;4976907;28;21097;-62
2021/07/31 08:40:11;;;;;;;3.45;0.88;;;;;;;;;;4993123;28;20657;-62
2021/07/31 08:42:37;;;;;;;4.55;1.33;;;;;;;;;;4980968;28;20021;-60
2021/07/31 08:45:03;;;;;;;3.10;0.82;;;;;;;;;;4979335;28;20039;-60
2021/07/31 08:47:29;;;;;;;11.90;0.95;;;;;;;;;;4980225;28;20140;-61
2021/07/31 08:49:56;;;;;;;12.23;1.90;;;;;;;;;;4971584;28;20034;-58
2021/07/31 08:52:23;;;;;;;16.75;2.03;;;;;;;;;;4979473;28;20434;-58
2021/07/31 08:54:51;;;;;;;13.07;1.20;;;;;;;;;;4996485;28;20593;-59
2021/07/31 08:57:19;;;;;;;4.28;0.93;;;;;;;;;;4993303;28;20772;-57
2021/07/31 08:59:47;;;;;;;7.00;1.00;;;;;;;;;;4991676;28;20038;-59
2021/07/31 09:02:12;;;;;;;6.10;0.63;;;;;;;;;;4990636;28;20043;-57
2021/07/31 09:04:44;;;;;;;4.78;1.08;;;;;;;;;;4987469;28;21073;-58
2021/07/31 09:07:13;;;;;;;8.15;1.15;;;;;;;;;;4976465;28;20025;-59
2021/07/31 09:09:38;;;;;;;1.52;0.85;;;;;;;;;;4980579;28;20642;-59
2021/07/31 09:12:07;;;;;;;8.98;1.17;;;;;;;;;;4982208;28;20041;-58
2021/07/31 09:14:46;;;;;;;3.78;0.98;;;;;;;;;;4979309;28;20254;-59
2021/07/31 09:17:24;;;;;;;6.05;1.10;;;;;;;;;;4977862;28;20028;-58
2021/07/31 09:19:57;;;;;;;7.88;1.30;;;;;;;;;;4979682;28;20860;-58
2021/07/31 09:22:25;;;;;;;2.45;0.68;;;;;;;;;;4982942;28;20025;-59
2021/07/31 09:25:07;;;;;;;4.20;0.93;;;;;;;;;;4991529;28;20038;-60
2021/07/31 09:27:32;;;;;;;4.47;0.80;;;;;;;;;;4981168;28;20421;-61
2021/07/31 09:30:05;;;;;;;7.40;1.40;;;;;;;;;;4979154;28;20058;-59
2021/07/31 09:32:41;;;;;;;7.18;1.10;;;;;;;;;;4979629;28;20104;-59
2021/07/31 09:35:20;;;;;;;9.82;1.23;;;;;;;;;;4981010;28;20116;-61
2021/07/31 09:37:47;;;;;;;10.75;1.13;;;;;;;;;;4977345;28;20037;-59
2021/07/31 09:40:14;;;;;;;6.75;0.77;;;;;;;;;;4979196;28;20064;-60
2021/07/31 09:42:41;;;;;;;11.60;1.08;;;;;;;;;;4974363;28;20030;-59
2021/07/31 09:45:11;;;;;;;8.23;1.30;;;;;;;;;;4978288;28;20029;-61
2021/07/31 09:47:37;;;;;;;10.18;1.42;;;;;;;;;;4980082;28;20128;-60
2021/07/31 09:50:05;;;;;;;8.05;1.63;;;;;;;;;;4980344;28;20018;-60
2021/07/31 09:52:32;;;;;;;6.47;1.30;;;;;;;;;;4977109;28;20049;-60
2021/07/31 09:54:58;;;;;;;6.88;1.48;;;;;;;;;;4980599;28;20049;-60
2021/07/31 09:57:27;;;;;;;9.10;1.40;;;;;;;;;;4977626;28;20022;-61
2021/07/31 09:59:56;;;;;;;4.82;1.33;;;;;;;;;;4975614;28;20456;-61
2021/07/31 10:02:24;;;;;;;9.43;1.60;;;;;;;;;;4959622;28;20401;-60
2021/07/31 10:04:50;;;;;;;6.78;1.67;;;;;;;;;;4994287;28;20064;-63
2021/07/31 10:07:17;;;;;;;6.25;1.60;;;;;;;;;;4978513;28;20044;-63
2021/07/31 10:09:46;;;;;;;15.23;1.40;;;;;;;;;;4979161;28;20042;-62
2021/07/31 10:12:17;;;;;;;6.82;1.20;;;;;;;;;;4981305;28;20030;-63
2021/07/31 10:14:45;;;;;;;10.70;1.45;;;;;;;;;;4979885;28;20041;-62
2021/07/31 10:17:12;;;;;;;8.90;1.20;;;;;;;;;;4990478;28;20075;-65
2021/07/31 10:19:44;;;;;;;7.35;1.35;;;;;;;;;;4992581;28;20041;-62
2021/07/31 10:22:13;;;;;;;3.80;1.38;;;;;;;;;;4989885;28;20034;-63
2021/07/31 10:25:02;;;;;;;8.10;1.33;;;;;;;;;;4979557;28;20030;-62
2021/07/31 10:27:29;;;;;;;5.93;1.02;;;;;;;;;;4974837;28;20061;-63
2021/07/31 10:29:58;;;;;;;5.70;1.20;;;;;;;;;;4976163;28;20758;-63
2021/07/31 10:32:32;;;;;;;3.38;0.93;;;;;;;;;;4975070;28;20569;-62
2021/07/31 10:35:18;;;;;;;5.20;1.17;;;;;;;;;;4978646;28;20590;-62
2021/07/31 10:37:45;;;;;;;6.13;1.05;;;;;;;;;;4977994;28;20150;-63
2021/07/31 10:40:33;;;;;;;8.98;1.15;;;;;;;;;;4982156;28;20026;-63
2021/07/31 10:43:00;;;;;;;7.95;1.55;;;;;;;;;;4998276;28;20041;-65
2021/07/31 10:45:30;;;;;;;3.70;1.08;;;;;;;;;;4980698;28;20033;-62
2021/07/31 10:47:59;;;;;;;6.70;1.10;;;;;;;;;;4995194;28;20057;-63
2021/07/31 10:50:27;;;;;;;4.85;1.55;;;;;;;;;;4983495;28;20034;-62
2021/07/31 10:52:56;;;;;;;8.40;1.20;;;;;;;;;;4982289;28;20147;-64
2021/07/31 10:55:26;;;;;;;5.47;1.45;;;;;;;;;;4982963;28;20050;-62
2021/07/31 10:57:53;;;;;;;2.53;1.00;;;;;;;;;;4996546;28;20026;-62
2021/07/31 11:00:39;;;;;;;5.05;1.10;;;;;;;;;;4979596;28;20037;-62
2021/07/31 11:05:54;;;;;;;5.30;1.30;;;;;;;;;;4981395;28;20041;-62
2021/07/31 11:08:25;;;;;;;4.97;1.50;;;;;;;;;;4981413;28;20052;-60
2021/07/31 11:10:57;;;;;;;4.55;1.30;;;;;;;;;;4981941;28;20597;-63
2021/07/31 11:13:30;;;;;;;4.07;1.25;;;;;;;;;;4982190;28;20041;-61
2021/07/31 11:15:55;;;;;;;7.20;1.38;;;;;;;;;;4996165;28;20043;-64
2021/07/31 11:18:44;;;;;;;5.80;1.17;;;;;;;;;;4982979;28;20086;-62
2021/07/31 11:21:14;;;;;;;6.25;1.35;;;;;;;;;;4962656;28;20466;-62
2021/07/31 11:23:42;;;;;;;3.33;1.15;;;;;;;;;;4967305;28;20033;-63
2021/07/31 11:26:08;;;;;;;5.00;1.40;;;;;;;;;;4981493;28;20971;-61
2021/07/31 11:28:36;;;;;;;3.05;1.10;;;;;;;;;;4980086;28;20044;-61
2021/07/31 11:31:14;;;;;;;3.50;1.35;;;;;;;;;;4984752;28;20493;-61
2021/07/31 11:33:41;;;;;;;5.53;1.55;;;;;;;;;;4982856;28;20034;-62
2021/07/31 11:36:11;;;;;;;5.38;1.08;;;;;;;;;;4994188;28;20030;-61
2021/07/31 11:38:40;;;;;;;2.88;1.13;;;;;;;;;;4980348;28;20066;-62
2021/07/31 11:41:05;;;;;;;5.18;1.23;;;;;;;;;;4995094;28;20053;-62
2021/07/31 11:44:04;;;;;;;5.47;1.23;;;;;;;;;;4993611;28;20030;-62
2021/07/31 11:46:41;;;;;;;3.08;1.02;;;;;;;;;;4946645;28;20133;-62
2021/07/31 11:49:09;;;;;;;2.25;1.00;;;;;;;;;;4993991;28;20044;-62
2021/07/31 11:51:45;;;;;;;4.20;1.05;;;;;;;;;;4982151;28;20030;-62
2021/07/31 11:54:11;;;;;;;2.28;0.88;;;;;;;;;;4996100;28;21019;-63
2021/07/31 11:56:38;;;;;;;5.07;1.35;;;;;;;;;;4982362;28;20041;-62
2021/07/31 11:59:07;;;;;;;2.90;0.90;;;;;;;;;;4981442;28;20048;-62
2021/07/31 12:01:34;;;;;;;1.88;0.80;;;;;;;;;;4992294;28;20065;-62
2021/07/31 12:03:59;;;;;;;2.67;0.98;;;;;;;;;;4979752;28;20063;-63
2021/07/31 12:06:27;;;;;;;2.90;0.98;;;;;;;;;;4979280;28;20023;-62
2021/07/31 12:08:53;;;;;;;2.28;0.73;;;;;;;;;;4996580;28;20405;-62
2021/07/31 12:11:37;;;;;;;4.10;0.82;;;;;;;;;;4986884;28;20030;-62
2021/07/31 12:14:22;;;;;;;3.42;1.08;;;;;;;;;;4981286;28;20107;-63
2021/07/31 12:16:48;;;;;;;1.88;0.77;;;;;;;;;;4980437;28;20030;-62
2021/07/31 12:19:16;;;;;;;1.25;0.65;;;;;;;;;;4977350;28;20022;-61
2021/07/31 12:21:41;;;;;;;1.77;1.00;;;;;;;;;;4993890;28;20919;-61
2021/07/31 12:24:15;;;;;;;2.75;1.17;;;;;;;;;;4980918;28;20033;-61
2021/07/31 12:26:50;;;;;;;1.77;1.08;;;;;;;;;;4975653;28;20470;-61
2021/07/31 12:29:35;;;;;;;1.27;0.80;;;;;;;;;;4991888;28;20026;-60
2021/07/31 12:32:22;;;;;;;3.75;1.17;;;;;;;;;;4992137;28;20089;-60
2021/07/31 12:34:48;;;;;;;4.80;0.98;;;;;;;;;;4982587;28;20029;-61
2021/07/31 12:37:13;;;;;;;5.85;1.48;;;;;;;;;;4978694;28;20081;-60
2021/07/31 12:39:39;;;;;;;4.50;1.52;;;;;;;;;;4978604;28;20042;-61
2021/07/31 12:42:05;;;;;;;7.60;1.92;;;;;;;;;;4992581;28;20205;-60
2021/07/31 12:44:31;;;;;;;6.22;1.90;;;;;;;;;;4994230;28;20710;-63
2021/07/31 12:46:59;;;;;;;3.83;1.73;;;;;;;;;;4968873;28;20666;-62
2021/07/31 12:49:25;;;;;;;3.00;1.52;;;;;;;;;;4980907;28;20030;-60
2021/07/31 12:51:51;;;;;;;3.22;1.40;;;;;;;;;;4994305;28;20659;-62
2021/07/31 12:54:16;;;;;;;4.18;1.75;;;;;;;;;;4980515;28;20056;-61
2021/07/31 12:57:03;;;;;;;3.97;1.50;;;;;;;;;;4979815;28;20044;-61
2021/07/31 12:59:47;;;;;;;5.57;1.77;;;;;;;;;;4990175;28;20104;-61
2021/07/31 13:02:32;;;;;;;1.77;0.90;;;;;;;;;;4979111;28;20108;-61
2021/07/31 13:05:16;;;;;;;3.70;1.45;;;;;;;;;;4980412;28;20084;-63
2021/07/31 13:08:00;;;;;;;;;;;;;;;;;;4992734;28;20106;-61
2021/07/31 13:10:45;;;;;;;1.85;0.95;;;;;;;;;;4980096;28;20656;-61
2021/07/31 13:13:32;;;;;;;4.30;1.40;;;;;;;;;;4979881;28;20128;-61
2021/07/31 13:16:17;;;;;;;2.00;1.50;;;;;;;;;;4978641;28;20072;-60
2021/07/31 13:19:01;;;;;;;2.53;1.30;;;;;;;;;;4992590;28;20056;-60
2021/07/31 13:21:45;;;;;;;;;;;;;;;;;;4978432;28;20049;-60
2021/07/31 13:24:32;;;;;;;2.25;1.10;;;;;;;;;;4978276;28;19928;-61
2021/07/31 13:27:17;;;;;;;6.40;1.90;;;;;;;;;;4979891;28;20049;-62
2021/07/31 13:30:04;;;;;;;3.45;1.70;;;;;;;;;;4990885;28;20112;-61
2021/07/31 13:32:53;;;;;;;4.55;2.70;;;;;;;;;;4989875;28;20060;-62
2021/07/31 13:35:40;;;;;;;7.18;1.90;;;;;;;;;;4975914;28;20107;-60
2021/07/31 13:38:33;;;;;;;3.20;1.23;;;;;;;;;;4990258;28;20142;-61
2021/07/31 13:41:17;;;;;;;2.03;1.20;;;;;;;;;;4976797;28;20076;-61
2021/07/31 13:44:09;;;;;;;7.53;1.40;;;;;;;;;;4992884;28;20713;-61
2021/07/31 13:46:53;;;;;;;3.42;1.77;;;;;;;;;;4979845;28;20041;-60
2021/07/31 13:49:38;;;;;;;3.17;1.50;;;;;;;;;;4980360;28;20073;-61
2021/07/31 13:52:22;;;;;;;6.10;1.95;;;;;;;;;;4978443;28;20139;-61
2021/07/31 13:55:07;;;;;;;5.97;1.75;;;;;;;;;;4985979;28;20104;-61
2021/07/31 13:57:51;;;;;;;4.18;2.17;;;;;;;;;;4977379;28;20045;-60
2021/07/31 14:00:38;;;;;;;4.40;1.60;;;;;;;;;;4977000;28;20056;-60
2021/07/31 14:03:23;;;;;;;5.78;1.95;;;;;;;;;;4977883;28;20096;-60
2021/07/31 14:06:07;;;;;;;5.20;1.52;;;;;;;;;;4990222;28;20062;-61
2021/07/31 14:08:51;;;;;;;4.65;1.63;;;;;;;;;;4991235;28;20129;-64
2021/07/31 14:11:37;;;;;;;3.67;1.80;;;;;;;;;;4981436;28;20045;-61
2021/07/31 14:14:21;;;;;;;3.28;1.58;;;;;;;;;;4996519;28;20073;-62
2021/07/31 14:17:05;;;;;;;4.90;2.33;;;;;;;;;;4994466;28;20338;-60
2021/07/31 14:19:49;;;;;;;11.98;2.25;;;;;;;;;;4993239;28;20106;-63
2021/07/31 14:22:36;;;;;;;4.57;2.33;;;;;;;;;;4984713;28;21227;-60
2021/07/31 14:25:20;;;;;;;6.88;1.38;;;;;;;;;;4983013;28;20044;-61
2021/07/31 14:28:04;;;;;;;3.67;1.53;;;;;;;;;;4982658;28;20080;-61
2021/07/31 14:30:50;;;;;;;6.07;1.77;;;;;;;;;;4983273;28;20057;-61
2021/07/31 14:33:36;;;;;;;3.88;1.42;;;;;;;;;;4994323;28;20045;-60
2021/07/31 14:36:21;;;;;;;1.67;1.17;;;;;;;;;;4992227;28;21008;-62
2021/07/31 14:39:05;;;;;;;1.92;1.05;;;;;;;;;;4983271;28;20064;-62
2021/07/31 14:41:49;;;;;;;2.65;1.25;;;;;;;;;;4980171;28;20127;-61
2021/07/31 14:44:36;;;;;;;4.47;1.23;;;;;;;;;;4983051;28;20146;-61
2021/07/31 14:47:23;;;;;;;2.85;1.20;;;;;;;;;;4983585;28;20112;-61
2021/07/31 14:50:07;;;;;;;1.08;0.80;;;;;;;;;;4982551;28;20053;-61
2021/07/31 14:52:52;;;;;;;4.80;0.80;;;;;;;;;;4982388;28;20062;-60
2021/07/31 14:55:37;;;;;;;2.83;0.80;;;;;;;;;;4983275;28;20049;-61
2021/07/31 14:58:03;;;;;;;1.10;0.80;;;;;;;;;;4994519;28;20018;-61